Time;durP1;ratioP1;P1;durP2;ratioP2;P2;SDS_P1;SDS_P2;PMS_P1;PMS_P2;Temp;Humidity;BMP_temperature;BMP_pressure;BME280_temperature;BME280_humidity;BME280_pressure;Samples;Min_cycle;Max_cycle;Signal;HPM_P1;HPM_P2
2021/09/25 00:02:09;;;;;;;;;5.75;4.50;;;;;17.47;42.60;101150.53;146611;722;45019;-84
2021/09/25 00:04:43;;;;;;;;;4.00;4.00;;;;;17.41;42.73;101158.19;146603;627;47010;-80
2021/09/25 00:07:17;;;;;;;;;4.00;4.00;;;;;17.32;43.01;101150.09;146607;578;46018;-75
2021/09/25 00:09:51;;;;;;;;;5.50;4.50;;;;;17.23;42.82;101152.44;146604;647;46018;-76
2021/09/25 00:12:25;;;;;;;;;4.75;4.50;;;;;17.20;42.78;101154.94;146608;581;46008;-75
2021/09/25 00:14:59;;;;;;;;;6.25;3.25;;;;;17.21;42.37;101162.84;146605;631;46019;-76
2021/09/25 00:17:33;;;;;;;;;3.50;3.25;;;;;17.23;43.04;101165.53;146603;673;46018;-76
2021/09/25 00:20:07;;;;;;;;;4.75;3.75;;;;;17.17;43.14;101154.84;146607;595;46018;-76
2021/09/25 00:22:41;;;;;;;;;5.00;5.00;;;;;17.13;42.95;101160.81;146605;579;47008;-75
2021/09/25 00:25:15;;;;;;;;;3.25;3.25;;;;;17.11;42.65;101152.94;146604;595;46018;-75
2021/09/25 00:27:49;;;;;;;;;5.00;5.00;;;;;17.12;43.12;101153.81;146607;585;46010;-75
2021/09/25 00:30:23;;;;;;;;;4.50;3.25;;;;;17.07;43.10;101149.31;146605;570;46018;-75
2021/09/25 00:32:57;;;;;;;;;4.75;3.50;;;;;17.03;43.02;101146.53;146608;656;46018;-75
2021/09/25 00:35:31;;;;;;;;;4.00;3.75;;;;;16.99;43.28;101155.16;146606;579;46018;-75
2021/09/25 00:38:05;;;;;;;;;6.00;5.75;;;;;16.95;43.73;101156.78;146609;601;46019;-77
2021/09/25 00:40:39;;;;;;;;;4.25;3.00;;;;;16.90;43.07;101152.25;146604;582;46018;-74
2021/09/25 00:43:13;;;;;;;;;4.50;3.75;;;;;16.88;43.34;101149.56;146606;611;46019;-76
2021/09/25 00:45:47;;;;;;;;;3.50;3.50;;;;;16.85;43.04;101146.84;146602;676;48023;-80
2021/09/25 00:48:24;;;;;;;;;5.00;5.00;;;;;16.89;43.51;101153.09;146605;665;46018;-79
2021/09/25 00:50:57;;;;;;;;;3.25;3.25;;;;;16.87;42.88;101152.16;146607;565;46019;-81
2021/09/25 00:53:31;;;;;;;;;6.00;4.75;;;;;16.87;43.38;101153.03;146608;686;46010;-79
2021/09/25 00:56:06;;;;;;;;;2.25;2.25;;;;;16.84;43.72;101153.81;146606;664;46018;-81
2021/09/25 00:58:42;;;;;;;;;2.50;2.25;;;;;16.85;42.59;101150.38;146606;638;46019;-81
2021/09/25 01:01:18;;;;;;;;;4.25;4.25;;;;;16.83;43.32;101144.19;146606;574;46018;-76
2021/09/25 01:03:51;;;;;;;;;5.50;4.50;;;;;16.78;43.14;101151.00;146607;631;46018;-75
2021/09/25 01:06:25;;;;;;;;;4.00;4.00;;;;;16.72;43.14;101150.75;146603;655;46018;-77
2021/09/25 01:08:59;;;;;;;;;5.00;3.50;;;;;16.71;42.86;101155.97;146606;685;46018;-76
2021/09/25 01:11:34;;;;;;;;;4.00;3.00;;;;;16.68;43.19;101153.22;146606;593;46010;-76
2021/09/25 01:14:08;;;;;;;;;5.00;5.00;;;;;16.67;42.61;101164.56;146609;573;46019;-79
2021/09/25 01:16:42;;;;;;;;;5.00;3.25;;;;;16.69;42.85;101162.84;146605;624;46018;-80
2021/09/25 01:19:16;;;;;;;;;4.50;4.50;;;;;16.71;42.61;101162.06;146608;572;46018;-84
2021/09/25 01:21:50;;;;;;;;;5.75;4.50;;;;;16.76;42.00;101159.63;146606;570;46011;-79
2021/09/25 01:24:23;;;;;;;;;5.00;3.75;;;;;16.83;42.33;101167.75;146609;569;46018;-78
2021/09/25 01:27:02;;;;;;;;;5.00;5.00;;;;;16.90;42.12;101162.72;146604;666;47010;-73
2021/09/25 01:29:36;;;;;;;;;3.50;3.50;;;;;16.96;41.94;101163.81;146605;596;46019;-76
2021/09/25 01:32:11;;;;;;;;;4.00;3.00;;;;;16.99;42.11;101163.91;146604;569;47010;-75
2021/09/25 01:34:45;;;;;;;;;5.00;4.00;;;;;17.01;42.44;101164.84;146608;604;46008;-75
2021/09/25 01:37:19;;;;;;;;;5.75;4.00;;;;;16.98;42.36;101163.88;146603;591;46031;-77
2021/09/25 01:39:53;;;;;;;;;5.00;5.00;;;;;16.95;43.04;101162.03;146608;564;46008;-80
2021/09/25 01:42:27;;;;;;;;;5.25;3.75;;;;;16.84;42.83;101160.78;146605;613;46018;-79
2021/09/25 01:45:01;;;;;;;;;3.00;3.00;;;;;16.74;42.44;101162.19;146607;622;46019;-79
2021/09/25 01:47:37;;;;;;;;;4.00;4.00;;;;;16.68;43.12;101163.72;146606;638;46018;-81
2021/09/25 01:50:16;;;;;;;;;4.00;4.00;;;;;16.61;42.66;101160.88;146607;569;46018;-82
2021/09/25 01:52:50;;;;;;;;;7.50;5.00;;;;;16.55;43.04;101165.91;146605;601;47010;-82
2021/09/25 01:55:24;;;;;;;;;4.00;3.25;;;;;16.50;42.60;101169.19;146608;571;46006;-82
2021/09/25 01:57:58;;;;;;;;;4.50;4.00;;;;;16.50;43.19;101174.44;146604;574;46019;-82
2021/09/25 02:00:34;;;;;;;;;5.25;5.25;;;;;14.72;43.27;100863.16;146606;600;46010;-81
2021/09/25 02:03:11;;;;;;;;;5.00;4.50;;;;;16.46;43.87;101172.56;146604;593;46022;-80
2021/09/25 02:05:45;;;;;;;;;4.00;3.25;;;;;16.39;43.72;101176.69;146608;586;46019;-81
2021/09/25 02:08:19;;;;;;;;;3.50;3.50;;;;;16.34;43.77;101184.38;146603;647;46018;-81
2021/09/25 02:10:53;;;;;;;;;4.75;3.25;;;;;16.30;43.79;101181.63;146603;624;47010;-80
2021/09/25 02:13:27;;;;;;;;;4.75;3.00;;;;;16.27;43.79;101186.75;146606;564;46019;-81
2021/09/25 02:16:01;;;;;;;;;4.00;4.00;;;;;16.23;43.63;101184.81;146607;569;46018;-81
2021/09/25 02:18:35;;;;;;;;;6.50;4.50;;;;;16.21;43.97;101187.41;146606;579;47010;-80
2021/09/25 02:21:09;;;;;;;;;4.75;4.25;;;;;16.18;43.52;101187.28;146610;709;46008;-72
2021/09/25 02:23:43;;;;;;;;;4.50;4.50;;;;;16.17;43.47;101189.03;146605;566;46018;-72
2021/09/25 02:26:17;;;;;;;;;4.25;4.25;;;;;16.20;42.90;101192.56;146606;774;46010;-73
2021/09/25 02:28:51;;;;;;;;;5.50;4.50;;;;;16.20;43.68;101201.34;146609;608;45917;-74
2021/09/25 02:31:25;;;;;;;;;8.50;7.00;;;;;16.19;43.83;101204.75;146609;613;46018;-73
2021/09/25 02:33:59;;;;;;;;;7.25;5.00;;;;;16.16;43.71;101205.53;146608;585;46010;-71
2021/09/25 02:36:33;;;;;;;;;6.00;5.00;;;;;16.14;43.96;101209.84;146608;606;46018;-72
2021/09/25 02:39:07;;;;;;;;;4.00;4.00;;;;;16.08;44.55;101208.75;146606;564;46018;-74
2021/09/25 02:41:41;;;;;;;;;7.25;5.25;;;;;16.01;44.82;101204.09;146610;617;45019;-73
2021/09/25 02:44:15;;;;;;;;;5.00;5.00;;;;;15.97;44.29;101210.06;146607;590;46010;-73
2021/09/25 02:46:51;;;;;;;;;5.75;5.75;;;;;15.96;43.87;101211.78;146608;655;46018;-73
2021/09/25 02:49:25;;;;;;;;;6.25;5.75;;;;;15.99;44.58;101219.75;146604;644;46022;-73
2021/09/25 02:52:00;;;;;;;;;6.75;6.25;;;;;16.04;44.06;101218.16;146606;628;46018;-75
2021/09/25 02:54:35;;;;;;;;;8.25;6.00;;;;;16.03;44.25;101219.00;146607;623;46010;-75
2021/09/25 02:57:09;;;;;;;;;6.00;6.00;;;;;16.05;44.93;101219.09;146610;589;45020;-76
2021/09/25 02:59:43;;;;;;;;;9.00;5.50;;;;;16.03;44.16;101221.62;146605;604;46018;-74
2021/09/25 03:02:17;;;;;;;;;8.50;6.25;;;;;16.01;45.51;101225.00;146607;581;47008;-80
2021/09/25 03:04:51;;;;;;;;;5.75;5.25;;;;;15.93;45.13;101241.31;146604;589;46019;-80
2021/09/25 03:07:25;;;;;;;;;7.00;6.50;;;;;15.90;45.14;101232.47;146609;577;45020;-81
2021/09/25 03:09:59;;;;;;;;;6.00;6.00;;;;;15.85;44.79;101234.91;146605;612;46018;-75
2021/09/25 03:12:33;;;;;;;;;7.50;6.00;;;;;15.82;44.11;101228.66;146609;603;46018;-73
2021/09/25 03:15:09;;;;;;;;;7.00;5.50;;;;;15.82;44.22;101232.16;146605;584;46018;-77
2021/09/25 03:17:43;;;;;;;;;8.50;6.00;;;;;15.86;44.63;101227.97;146603;676;46018;-78
2021/09/25 03:20:17;;;;;;;;;8.75;6.25;;;;;15.90;44.49;101235.97;146606;631;46010;-75
2021/09/25 03:22:51;;;;;;;;;4.75;4.75;;;;;15.93;44.32;101237.81;146607;583;47010;-77
2021/09/25 03:25:25;;;;;;;;;6.50;6.50;;;;;15.98;43.85;101251.06;146604;595;46018;-86
2021/09/25 03:27:59;;;;;;;;;7.25;5.75;;;;;16.04;44.13;101253.91;146605;569;47008;-84
2021/09/25 03:30:33;;;;;;;;;7.25;5.25;;;;;16.09;44.22;101254.97;146601;565;47010;-76
2021/09/25 03:33:07;;;;;;;;;10.50;7.00;;;;;16.12;44.85;101257.72;146605;589;46910;-75
2021/09/25 03:35:46;;;;;;;;;5.50;4.75;;;;;16.10;43.96;101261.97;146606;602;45917;-76
2021/09/25 03:38:25;;;;;;;;;7.00;6.00;;;;;16.09;44.20;101262.81;146609;609;46010;-76
2021/09/25 03:41:00;;;;;;;;;6.00;5.00;;;;;16.04;44.37;101273.09;146604;606;47020;-76
2021/09/25 03:43:34;;;;;;;;;7.25;6.75;;;;;15.98;45.62;101272.91;146608;609;45021;-76
2021/09/25 03:46:08;;;;;;;;;5.00;5.00;;;;;15.86;45.29;101272.44;146606;618;46018;-76
2021/09/25 03:48:42;;;;;;;;;7.00;6.00;;;;;15.75;45.48;101272.00;146610;576;46010;-77
2021/09/25 03:51:16;;;;;;;;;8.50;6.25;;;;;15.63;45.85;101267.13;146604;566;46018;-76
2021/09/25 03:53:50;;;;;;;;;7.00;5.75;;;;;15.54;45.85;101272.00;146609;580;46010;-76
2021/09/25 03:56:24;;;;;;;;;6.00;5.00;;;;;15.51;45.49;101271.88;146609;599;45022;-76
2021/09/25 03:58:57;;;;;;;;;5.00;5.00;;;;;15.51;45.51;101282.34;146606;605;45582;-76
2021/09/25 04:01:31;;;;;;;;;6.00;5.50;;;;;15.57;45.30;101284.31;146604;586;46018;-76
2021/09/25 04:04:05;;;;;;;;;6.25;6.00;;;;;15.61;45.12;101281.91;146605;616;47008;-75
2021/09/25 04:06:39;;;;;;;;;5.00;4.00;;;;;15.71;44.88;101291.03;146605;595;46010;-79
2021/09/25 04:09:13;;;;;;;;;6.50;5.25;;;;;15.81;45.16;101292.25;146605;583;46018;-78
2021/09/25 04:11:50;;;;;;;;;5.50;5.50;;;;;15.89;45.01;101298.69;146604;594;46019;-78
2021/09/25 04:14:24;;;;;;;;;6.00;6.00;;;;;15.91;44.64;101302.25;146607;579;46018;-77
2021/09/25 04:16:58;;;;;;;;;7.75;7.00;;;;;15.89;45.09;101294.34;146605;586;46019;-76
2021/09/25 04:19:32;;;;;;;;;9.00;7.00;;;;;15.88;44.25;101302.13;146608;577;47010;-76
2021/09/25 04:22:06;;;;;;;;;9.25;8.75;;;;;15.88;44.82;101303.00;146607;594;46010;-76
2021/09/25 04:24:40;;;;;;;;;6.75;6.00;;;;;15.90;46.16;101303.97;146608;575;46018;-77
2021/09/25 04:27:14;;;;;;;;;9.00;7.00;;;;;15.86;45.57;101306.44;146604;622;46018;-82
2021/09/25 04:29:48;;;;;;;;;8.00;6.50;;;;;15.82;46.03;101308.00;146607;661;46018;-71
2021/09/25 04:32:22;;;;;;;;;8.00;8.00;;;;;15.77;45.12;101309.56;146604;618;46018;-69
2021/09/25 04:34:56;;;;;;;;;10.50;9.00;;;;;15.77;45.62;101316.53;146607;578;46018;-72
2021/09/25 04:37:30;;;;;;;;;7.00;7.00;;;;;15.78;45.68;101318.28;146603;593;46018;-71
2021/09/25 04:40:04;;;;;;;;;5.75;5.50;;;;;15.75;46.07;101319.06;146608;638;46018;-71
2021/09/25 04:42:38;;;;;;;;;6.00;6.00;;;;;15.70;46.95;101320.63;146605;567;46018;-73
2021/09/25 04:45:13;;;;;;;;;8.00;7.50;;;;;15.67;46.37;101331.84;146607;593;46018;-76
2021/09/25 04:47:50;;;;;;;;;9.00;7.25;;;;;15.64;46.36;101331.69;146605;595;46018;-76
2021/09/25 04:50:29;;;;;;;;;8.25;6.00;;;;;15.67;46.21;101337.06;146609;579;46018;-79
2021/09/25 04:53:10;;;;;;;;;6.75;6.25;;;;;15.68;46.00;101332.72;146606;580;46010;-70
2021/09/25 04:55:46;;;;;;;;;6.75;6.00;;;;;15.85;47.03;101334.28;146607;564;46019;-70
2021/09/25 04:58:23;;;;;;;;;5.25;5.00;;;;;16.53;45.21;101339.47;146605;610;46018;-70
2021/09/25 05:00:57;;;;;;;;;7.25;5.50;;;;;17.48;43.84;101341.09;146604;676;47008;-69
2021/09/25 05:03:32;;;;;;;;;7.00;6.00;;;;;18.51;42.51;101335.53;146605;631;46019;-70
2021/09/25 05:06:06;;;;;;;;;10.50;4.00;;;;;19.57;40.91;101336.62;146608;595;46018;-68
2021/09/25 05:08:40;;;;;;;;;7.50;5.75;;;;;20.60;39.63;101331.06;146605;569;46018;-70
2021/09/25 05:11:14;;;;;;;;;7.00;6.00;;;;;21.71;38.40;101347.09;146606;602;46018;-69
2021/09/25 05:13:48;;;;;;;;;7.00;5.50;;;;;22.76;35.01;101337.09;146603;583;47010;-69
2021/09/25 05:16:22;;;;;;;;;5.75;4.75;;;;;23.39;34.86;101340.38;146608;614;45020;-72
2021/09/25 05:18:55;;;;;;;;;9.00;9.00;;;;;23.92;34.10;101345.19;146603;574;46917;-69
2021/09/25 05:21:29;;;;;;;;;5.00;5.00;;;;;24.51;33.68;101354.38;146607;595;46018;-70
2021/09/25 05:24:03;;;;;;;;;8.00;6.75;;;;;25.09;32.56;101355.41;146606;588;46019;-70
2021/09/25 05:26:40;;;;;;;;;8.25;6.25;;;;;25.48;30.95;101345.75;146606;565;46018;-69
2021/09/25 05:29:16;;;;;;;;;10.50;10.50;;;;;25.44;30.66;101351.94;146602;593;47916;-70
2021/09/25 05:31:50;;;;;;;;;8.00;8.00;;;;;25.05;31.39;101352.78;146607;609;46018;-68
2021/09/25 05:34:24;;;;;;;;;6.75;6.00;;;;;24.55;32.00;101358.78;146605;566;46018;-70
2021/09/25 05:36:58;;;;;;;;;25.25;24.25;;;;;24.02;32.37;101357.66;146608;613;46018;-70
2021/09/25 05:39:32;;;;;;;;;71.00;54.25;;;;;23.57;33.66;101343.16;146605;664;46018;-71
2021/09/25 05:42:06;;;;;;;;;204.50;173.75;;;;;23.23;33.85;101357.88;146610;736;46018;-70
2021/09/25 05:44:44;;;;;;;;;135.50;113.00;;;;;22.97;34.85;101358.50;146616;601;46010;-70
2021/09/25 05:47:18;;;;;;;;;201.75;168.00;;;;;22.83;35.58;101357.41;146615;615;46019;-71
2021/09/25 05:49:52;;;;;;;;;241.50;211.00;;;;;22.73;34.95;101361.72;146614;648;46018;-70
2021/09/25 05:52:27;;;;;;;;;184.00;148.50;;;;;22.63;35.97;101364.25;146612;591;46018;-70
2021/09/25 05:55:00;;;;;;;;;108.33;86.67;;;;;22.58;36.16;101362.41;146612;770;46010;-70
2021/09/25 05:57:34;;;;;;;;;106.33;87.67;;;;;22.66;36.05;101365.16;146613;632;46910;-70
2021/09/25 06:00:10;;;;;;;;;110.00;92.67;;;;;22.81;36.79;101370.62;146614;889;46010;-71
2021/09/25 06:02:45;;;;;;;;;94.00;72.67;;;;;23.01;36.00;101372.63;146613;594;46018;-69
2021/09/25 06:05:19;;;;;;;;;78.00;61.50;;;;;23.23;36.02;101368.44;146608;640;46018;-69
2021/09/25 06:07:53;;;;;;;;;72.50;57.75;;;;;23.43;35.74;101369.53;146606;585;46018;-69
2021/09/25 06:10:27;;;;;;;;;72.50;57.25;;;;;23.59;35.67;101373.19;146603;656;46019;-69
2021/09/25 06:13:03;;;;;;;;;37.50;29.50;;;;;23.75;35.21;101374.22;146607;577;45018;-69
2021/09/25 06:15:37;;;;;;;;;58.50;45.75;;;;;23.84;34.88;101374.28;146603;564;47011;-69
2021/09/25 06:18:12;;;;;;;;;16.75;15.75;;;;;23.97;34.47;101383.22;146605;596;46018;-70
2021/09/25 06:20:46;;;;;;;;;21.00;19.50;;;;;24.08;33.90;101381.53;146604;563;46018;-69
2021/09/25 06:23:20;;;;;;;;;46.00;35.75;;;;;24.15;33.99;101382.44;146604;575;46019;-70
2021/09/25 06:25:54;;;;;;;;;35.00;28.00;;;;;24.18;33.94;101396.59;146603;646;47020;-71
2021/09/25 06:28:29;;;;;;;;;30.00;26.50;;;;;24.20;33.99;101391.28;146609;633;46008;-69
2021/09/25 06:31:03;;;;;;;;;19.75;18.25;;;;;24.25;34.48;101405.47;146603;585;46019;-69
2021/09/25 06:33:37;;;;;;;;;26.50;25.00;;;;;24.35;33.82;101404.62;146606;590;46909;-69
2021/09/25 06:36:11;;;;;;;;;28.00;24.50;;;;;24.50;33.27;101406.50;146607;580;45916;-69
2021/09/25 06:38:45;;;;;;;;;20.25;16.00;;;;;24.61;32.94;101412.75;146606;622;47010;-69
2021/09/25 06:41:19;;;;;;;;;17.00;15.75;;;;;24.72;32.97;101412.78;146604;613;46018;-69
2021/09/25 06:43:53;;;;;;;;;28.75;25.00;;;;;24.80;33.88;101408.41;146608;618;46008;-70
2021/09/25 06:46:26;;;;;;;;;26.25;22.25;;;;;24.97;33.67;101407.56;146605;599;46019;-69
2021/09/25 06:49:00;;;;;;;;;19.00;14.75;;;;;25.17;33.34;101413.88;146605;607;46018;-68
2021/09/25 06:51:34;;;;;;;;;12.25;11.25;;;;;25.34;32.46;101416.53;146605;592;46018;-71
2021/09/25 06:54:08;;;;;;;;;18.50;18.00;;;;;25.49;33.82;101418.31;146606;598;46010;-73
2021/09/25 06:56:42;;;;;;;;;10.50;9.50;;;;;25.64;33.52;101425.38;146604;576;46028;-75
2021/09/25 06:59:16;;;;;;;;;14.25;13.00;;;;;25.80;33.50;101424.53;146608;621;46018;-70
2021/09/25 07:01:50;;;;;;;;;16.00;15.00;;;;;25.96;32.87;101428.97;146605;588;47010;-70
2021/09/25 07:04:24;;;;;;;;;18.25;15.50;;;;;26.13;33.14;101434.25;146609;596;46018;-71
2021/09/25 07:06:58;;;;;;;;;11.50;10.25;;;;;26.28;32.26;101438.66;146604;572;46018;-70
2021/09/25 07:09:32;;;;;;;;;11.00;10.25;;;;;26.35;31.86;101436.87;146605;564;46018;-72
2021/09/25 07:12:14;;;;;;;;;11.00;10.75;;;;;26.39;32.01;101433.34;146605;604;46010;-71
2021/09/25 07:14:48;;;;;;;;;12.75;10.75;;;;;26.39;31.29;101443.97;146606;579;46019;-70
2021/09/25 07:17:22;;;;;;;;;11.00;10.25;;;;;26.43;32.15;101443.94;146605;609;46019;-71
2021/09/25 07:19:56;;;;;;;;;11.50;10.25;;;;;26.53;32.06;101439.50;146606;555;46018;-71
2021/09/25 07:22:30;;;;;;;;;11.25;9.75;;;;;26.66;32.00;101440.34;146606;597;46018;-71
2021/09/25 07:25:04;;;;;;;;;13.50;11.50;;;;;26.83;31.76;101440.31;146606;636;46028;-69
2021/09/25 07:27:38;;;;;;;;;10.00;9.00;;;;;26.94;31.94;101449.09;146605;635;46018;-70
2021/09/25 07:30:13;;;;;;;;;11.00;9.75;;;;;27.06;32.04;101443.72;146610;573;46008;-70
2021/09/25 07:32:47;;;;;;;;;12.50;10.50;;;;;27.20;30.54;101448.09;146606;687;46010;-71
2021/09/25 07:35:22;;;;;;;;;15.00;11.75;;;;;27.24;31.02;101447.22;146605;569;46018;-70
2021/09/25 07:37:55;;;;;;;;;10.25;9.25;;;;;27.29;30.88;101450.72;146603;567;46031;-66
2021/09/25 07:40:29;;;;;;;;;10.25;10.25;;;;;27.36;31.32;101448.00;146607;600;46018;-73
2021/09/25 07:43:04;;;;;;;;;15.50;12.75;;;;;27.48;31.28;101448.84;146604;607;46018;-72
2021/09/25 07:45:38;;;;;;;;;11.50;11.50;;;;;27.62;30.77;101450.47;146607;622;46008;-72
2021/09/25 07:48:12;;;;;;;;;11.75;10.00;;;;;27.81;30.12;101455.69;146607;646;46018;-73
2021/09/25 07:50:46;;;;;;;;;14.50;12.75;;;;;27.90;29.72;101452.94;146609;572;46018;-72
2021/09/25 07:53:20;;;;;;;;;11.25;9.75;;;;;27.91;29.02;101460.03;146605;686;46019;-74
2021/09/25 07:55:54;;;;;;;;;10.50;9.00;;;;;27.91;29.87;101457.37;146607;588;46018;-72
2021/09/25 07:58:28;;;;;;;;;9.00;7.75;;;;;27.94;29.32;101459.12;146604;566;46018;-73
2021/09/25 08:01:04;;;;;;;;;9.75;9.00;;;;;27.87;29.10;101455.66;146604;563;46019;-75
2021/09/25 08:03:37;;;;;;;;;10.75;8.00;;;;;27.83;29.48;101465.44;146608;609;46010;-71
2021/09/25 08:06:11;;;;;;;;;10.00;8.75;;;;;27.86;29.79;101456.56;146607;684;46018;-69
2021/09/25 08:08:45;;;;;;;;;10.75;9.25;;;;;27.96;29.25;101466.22;146603;593;46019;-72
2021/09/25 08:11:19;;;;;;;;;10.25;8.75;;;;;28.11;30.15;101456.34;146610;619;45023;-69
2021/09/25 08:13:53;;;;;;;;;8.75;8.75;;;;;28.28;29.76;101457.91;146608;584;46022;-69
2021/09/25 08:16:29;;;;;;;;;7.25;7.25;;;;;28.41;28.88;101461.41;146608;593;46010;-69
2021/09/25 08:19:03;;;;;;;;;9.50;8.75;;;;;28.44;26.81;101460.44;146604;639;46018;-73
2021/09/25 08:21:37;;;;;;;;;10.25;9.00;;;;;28.31;28.20;101463.22;146608;638;46019;-69
2021/09/25 08:24:11;;;;;;;;;10.50;9.00;;;;;28.23;27.40;101457.09;146604;570;46026;-69
2021/09/25 08:26:45;;;;;;;;;9.50;9.50;;;;;28.20;28.19;101462.47;146607;685;46008;-71
2021/09/25 08:29:18;;;;;;;;;9.75;9.75;;;;;28.22;29.40;101465.09;146605;648;46019;-68
2021/09/25 08:31:52;;;;;;;;;11.50;9.50;;;;;28.30;29.68;101460.56;146606;660;46018;-70
2021/09/25 08:34:26;;;;;;;;;6.50;6.50;;;;;28.46;28.78;101461.31;146606;579;47010;-69
2021/09/25 08:37:00;;;;;;;;;10.50;8.25;;;;;28.61;28.36;101461.16;146607;584;46018;-70
2021/09/25 08:39:34;;;;;;;;;7.25;7.25;;;;;28.79;28.22;101462.72;146604;612;46018;-68
2021/09/25 08:42:08;;;;;;;;;6.25;6.25;;;;;28.93;26.83;101462.53;146608;690;46018;-69
2021/09/25 08:44:44;;;;;;;;;12.00;9.25;;;;;29.07;27.96;101457.06;146604;663;46031;-71
2021/09/25 08:47:21;;;;;;;;;10.25;7.75;;;;;29.17;28.50;101462.25;146609;577;46018;-71
2021/09/25 08:49:55;;;;;;;;;9.25;8.50;;;;;29.33;27.10;101457.56;146603;564;47010;-72
2021/09/25 08:52:30;;;;;;;;;8.75;8.75;;;;;29.45;26.10;101453.81;146604;564;46019;-72
2021/09/25 08:55:04;;;;;;;;;10.50;9.50;;;;;29.47;26.66;101454.66;146604;706;46018;-72
2021/09/25 08:57:39;;;;;;;;;8.00;7.00;;;;;29.50;27.50;101453.75;146606;643;47008;-72
2021/09/25 09:00:46;;;;;;;;;13.00;9.00;;;;;29.03;27.51;101360.06;146609;645;46010;-71
2021/09/25 09:03:46;;;;;;;;;11.00;8.50;;;;;29.59;28.49;101454.47;146609;627;46018;-71
2021/09/25 09:06:26;;;;;;;;;7.00;6.25;;;;;29.56;28.33;101451.84;146605;578;46019;-71
2021/09/25 09:09:04;;;;;;;;;6.75;6.75;;;;;29.57;27.93;101450.09;146610;588;46008;-72
2021/09/25 09:11:43;;;;;;;;;8.00;6.00;;;;;29.62;28.62;101450.91;146604;617;46018;-72
2021/09/25 09:14:20;;;;;;;;;5.75;5.75;;;;;29.71;29.14;101456.09;146607;733;46019;-72
2021/09/25 09:17:03;;;;;;;;;5.25;4.00;;;;;29.85;27.27;101455.88;146605;590;46018;-72
2021/09/25 09:19:41;;;;;;;;;8.25;6.00;;;;;29.88;27.91;101455.84;146606;568;46010;-72
2021/09/25 09:22:21;;;;;;;;;7.25;7.25;;;;;29.89;28.73;101463.81;146601;638;47038;-71
2021/09/25 09:24:57;;;;;;;;;8.25;7.00;;;;;29.93;28.86;101461.97;146607;624;46018;-72
2021/09/25 09:27:33;;;;;;;;;5.50;5.00;;;;;29.99;28.07;101456.50;146608;602;46022;-72
2021/09/25 09:30:17;;;;;;;;;6.00;6.00;;;;;29.99;29.11;101461.84;146609;574;46018;-72
2021/09/25 09:32:51;;;;;;;;;7.00;6.00;;;;;29.99;28.79;101455.62;146608;611;46018;-72
2021/09/25 09:35:26;;;;;;;;;5.67;4.33;;;;;29.98;26.75;101456.56;146609;692;46009;-71
2021/09/25 09:37:59;;;;;;;;;15.67;9.67;;;;;29.89;27.08;101458.47;146607;662;46018;-72
2021/09/25 09:40:33;;;;;;;;;6.00;5.33;;;;;29.86;28.02;101452.28;146610;593;46018;-71
2021/09/25 09:43:07;;;;;;;;;4.67;4.67;;;;;29.86;26.43;101453.16;146606;607;46019;-72
2021/09/25 09:45:41;;;;;;;;;6.00;4.67;;;;;29.90;26.45;101462.91;146607;577;46010;-70
2021/09/25 09:48:16;;;;;;;;;4.00;4.00;;;;;29.93;25.81;101460.16;146607;595;45022;-70
2021/09/25 09:50:51;;;;;;;;;6.67;4.67;;;;;29.86;25.17;101457.66;146611;628;46019;-73
2021/09/25 09:53:24;;;;;;;;;5.33;5.33;;;;;29.61;25.12;101460.72;146606;565;46018;-71
2021/09/25 09:56:22;;;;;;;;;4.33;4.00;;;;;29.27;26.32;101454.97;146608;565;46018;-71
2021/09/25 09:59:07;;;;;;;;;8.67;6.00;;;;;29.15;27.58;101458.69;146606;587;46018;-72
2021/09/25 10:01:42;;;;;;;;;4.33;4.00;;;;;29.08;27.74;101466.81;146609;586;46018;-72
2021/09/25 10:04:17;;;;;;;;;6.67;6.67;;;;;28.98;28.03;101461.56;146608;566;46027;-73
2021/09/25 10:06:53;;;;;;;;;6.67;5.00;;;;;29.00;27.92;101461.53;146609;625;45019;-72
2021/09/25 10:09:30;;;;;;;;;6.00;5.00;;;;;29.07;28.78;101462.41;146609;581;46026;-72
2021/09/25 10:12:16;;;;;;;;;5.00;4.00;;;;;28.98;26.19;101469.59;146607;634;46019;-72
2021/09/25 10:14:51;;;;;;;;;5.00;4.00;;;;;28.89;28.92;101460.81;146606;572;47916;-72
2021/09/25 10:17:25;;;;;;;;;6.00;5.00;;;;;28.90;28.28;101451.91;146611;629;46021;-72
2021/09/25 10:20:00;;;;;;;;;6.67;4.00;;;;;28.93;28.27;101450.06;146606;597;46019;-72
2021/09/25 10:22:38;;;;;;;;;6.00;6.00;;;;;28.99;27.81;101449.97;146608;627;46018;-72
2021/09/25 10:25:16;;;;;;;;;6.25;5.00;;;;;29.09;27.19;101452.56;146607;615;47010;-72
2021/09/25 10:27:50;;;;;;;;;6.00;5.00;;;;;29.17;28.18;101442.66;146610;643;46019;-72
2021/09/25 10:30:40;;;;;;;;;6.00;6.00;;;;;29.31;28.41;101446.00;146605;624;47010;-71
2021/09/25 10:33:22;;;;;;;;;7.33;6.00;;;;;29.37;25.61;101443.22;146610;595;46018;-72
2021/09/25 10:35:57;;;;;;;;;5.75;4.00;;;;;29.38;26.04;101441.47;146606;590;46029;-72
2021/09/25 10:38:38;;;;;;;;;5.67;5.00;;;;;29.36;25.02;101438.81;146609;588;46008;-71
2021/09/25 10:41:23;;;;;;;;;5.00;5.00;;;;;29.42;25.61;101433.37;146603;639;46019;-71
2021/09/25 10:43:57;;;;;;;;;6.00;6.00;;;;;29.51;24.04;101437.69;146608;579;46018;-71
2021/09/25 10:46:31;;;;;;;;;5.00;4.00;;;;;29.61;23.32;101425.09;146604;616;46018;-71
2021/09/25 10:49:17;;;;;;;;;6.00;5.25;;;;;29.77;25.50;101421.25;146607;700;46010;-71
2021/09/25 10:51:51;;;;;;;;;4.50;4.00;;;;;29.81;22.04;101422.94;146605;584;46018;-72
2021/09/25 10:54:25;;;;;;;;;4.00;4.00;;;;;29.83;22.70;101425.62;146607;641;46018;-71
2021/09/25 10:57:02;;;;;;;;;6.00;5.00;;;;;29.85;20.71;101422.00;146608;655;45048;-72
2021/09/25 10:59:37;;;;;;;;;7.33;5.67;;;;;29.97;23.89;101422.69;146610;619;46006;-72
2021/09/25 11:02:12;;;;;;;;;6.00;4.00;;;;;30.05;21.41;101426.09;146608;572;46022;-71
2021/09/25 11:04:46;;;;;;;;;6.00;5.00;;;;;30.10;24.09;101422.44;146607;570;46010;-71
2021/09/25 11:07:41;;;;;;;;;5.00;4.00;;;;;30.22;26.08;101423.13;146606;649;46018;-72
2021/09/25 11:10:15;;;;;;;;;5.00;4.00;;;;;30.34;25.67;101414.88;146610;583;46008;-72
2021/09/25 11:12:52;;;;;;;;;9.75;6.00;;;;;30.42;25.12;101414.75;146604;608;46019;-72
2021/09/25 11:15:39;;;;;;;;;7.33;6.00;;;;;30.47;25.80;101418.19;146610;604;45020;-71
2021/09/25 11:18:31;;;;;;;;;5.33;5.33;;;;;30.50;25.33;101404.75;146605;571;46018;-71
2021/09/25 11:21:08;;;;;;;;;4.67;4.67;;;;;30.59;26.08;101409.91;146610;566;46008;-72
2021/09/25 11:23:49;;;;;;;;;6.67;5.67;;;;;30.67;27.00;101401.72;146608;663;46010;-72
2021/09/25 11:26:23;;;;;;;;;5.33;5.33;;;;;30.71;26.15;101401.62;146609;613;45030;-72
2021/09/25 11:29:09;;;;;;;;;7.33;6.67;;;;;30.67;27.01;101396.37;146604;626;46018;-72
2021/09/25 11:31:43;;;;;;;;;8.00;6.00;;;;;30.64;26.98;101393.75;146607;605;46018;-72
2021/09/25 11:34:28;;;;;;;;;4.67;3.00;;;;;30.65;27.52;101391.03;146604;601;47025;-71
2021/09/25 11:37:05;;;;;;;;;6.00;5.33;;;;;30.74;27.42;101390.84;146606;585;46018;-72
2021/09/25 11:39:50;;;;;;;;;6.67;5.00;;;;;30.87;27.11;101388.81;146606;629;46019;-71
2021/09/25 11:42:34;;;;;;;;;6.00;6.00;;;;;30.92;26.08;101388.72;146606;624;46008;-72
2021/09/25 11:45:12;;;;;;;;;4.67;4.67;;;;;30.85;26.39;101389.78;146606;579;46018;-72
2021/09/25 11:47:50;;;;;;;;;5.00;4.00;;;;;30.79;26.76;101389.00;146609;582;46019;-72
2021/09/25 11:50:32;;;;;;;;;6.67;6.67;;;;;30.74;26.11;101381.94;146605;569;46018;-72
2021/09/25 11:53:09;;;;;;;;;6.33;4.33;;;;;30.68;26.16;101380.25;146607;626;46018;-73
2021/09/25 11:55:44;;;;;;;;;4.33;4.33;;;;;30.61;25.43;101382.19;146606;596;46010;-72
2021/09/25 11:58:27;;;;;;;;;5.00;5.00;;;;;30.58;25.60;101384.06;146606;573;46910;-72
2021/09/25 12:01:03;;;;;;;;;6.00;4.00;;;;;30.54;25.23;101383.25;146604;685;46018;-71